createdAt,value
2019-06-15T00:00:56.402Z,507.58
2019-06-15T00:03:27.562Z,513.15
2019-06-15T00:05:58.970Z,496.05
2019-06-15T00:08:31.403Z,504.95
2019-06-15T00:11:02.699Z,502.00
2019-06-15T00:13:34.054Z,521.92
2019-06-15T00:16:05.495Z,500.05
2019-06-15T00:18:36.687Z,501.73
2019-06-15T00:21:08.098Z,494.10
2019-06-15T00:23:39.317Z,499.18
2019-06-15T00:26:11.028Z,501.07
2019-06-15T00:28:42.256Z,492.07
2019-06-15T00:31:13.613Z,491.40
2019-06-15T00:33:44.796Z,494.00
2019-06-15T00:36:16.038Z,486.05
2019-06-15T00:38:47.441Z,484.52
2019-06-15T00:41:18.682Z,487.20
2019-06-15T00:43:49.960Z,499.85
2019-06-15T00:46:21.324Z,487.15
2019-06-15T00:48:52.689Z,490.15
2019-06-15T00:51:23.878Z,511.25
2019-06-15T00:53:54.874Z,488.80
2019-06-15T00:56:26.083Z,492.50
2019-06-15T00:58:57.484Z,480.90
2019-06-15T01:01:28.802Z,488.50
2019-06-15T01:03:59.979Z,487.02
2019-06-15T01:06:31.413Z,489.25
2019-06-15T01:09:02.556Z,470.25
2019-06-15T01:11:35.743Z,490.45
2019-06-15T01:14:07.357Z,480.63
2019-06-15T01:16:38.621Z,469.75
2019-06-15T01:19:09.803Z,477.25
2019-06-15T01:21:41.393Z,475.87
2019-06-15T01:24:12.634Z,465.95
2019-06-15T01:26:43.832Z,468.02
2019-06-15T01:29:15.051Z,453.68
2019-06-15T01:31:46.224Z,447.75
2019-06-15T01:34:17.445Z,445.85
2019-06-15T01:36:48.714Z,450.95
2019-06-15T01:39:20.007Z,446.10
2019-06-15T01:41:51.502Z,442.75
2019-06-15T01:44:23.737Z,442.25
2019-06-15T01:46:55.063Z,441.02
2019-06-15T01:49:26.342Z,443.50
2019-06-15T01:51:57.774Z,440.82
2019-06-15T01:54:29.001Z,436.62
2019-06-15T01:57:00.236Z,430.43
2019-06-15T01:59:31.420Z,438.40
2019-06-15T02:02:02.636Z,427.70
2019-06-15T02:04:33.789Z,438.52
2019-06-15T02:07:05.443Z,430.25
2019-06-15T02:09:36.674Z,436.23
2019-06-15T02:12:07.978Z,445.57
2019-06-15T02:14:39.452Z,432.02
2019-06-15T02:17:11.845Z,436.95
2019-06-15T02:19:43.413Z,432.12
2019-06-15T02:22:15.610Z,427.62
2019-06-15T02:24:46.807Z,431.75
2019-06-15T02:27:18.382Z,426.00
2019-06-15T02:29:49.591Z,425.40
2019-06-15T02:32:21.188Z,423.70
2019-06-15T02:34:52.467Z,433.07
2019-06-15T02:37:23.763Z,428.58
2019-06-15T02:39:55.104Z,431.05
2019-06-15T02:42:26.443Z,430.13
2019-06-15T02:44:57.793Z,431.35
2019-06-15T02:47:29.224Z,435.13
2019-06-15T02:50:00.503Z,434.05
2019-06-15T02:52:31.915Z,429.00
2019-06-15T02:55:03.395Z,431.37
2019-06-15T02:57:34.685Z,426.15
2019-06-15T03:00:06.543Z,432.17
2019-06-15T03:02:37.752Z,427.55
2019-06-15T03:05:09.763Z,428.48
2019-06-15T03:07:41.438Z,429.72
2019-06-15T03:10:12.820Z,438.50
2019-06-15T03:12:45.049Z,424.02
2019-06-15T03:15:17.841Z,431.87
2019-06-15T03:17:50.189Z,433.80
2019-06-15T03:20:21.537Z,435.00
2019-06-15T03:22:52.786Z,431.95
2019-06-15T03:25:25.006Z,432.05
2019-06-15T03:27:56.253Z,435.90
2019-06-15T03:30:27.485Z,437.08
2019-06-15T03:32:58.673Z,430.87
2019-06-15T03:35:30.033Z,434.95
2019-06-15T03:38:01.487Z,428.50
2019-06-15T03:40:32.680Z,437.25
2019-06-15T03:43:04.095Z,433.53
2019-06-15T03:45:35.335Z,427.07
2019-06-15T03:48:06.814Z,432.70
2019-06-15T03:50:37.977Z,428.73
2019-06-15T03:53:09.392Z,430.83
2019-06-15T03:55:41.907Z,424.35
2019-06-15T03:58:13.074Z,429.38
2019-06-15T04:00:55.864Z,430.43
2019-06-15T04:03:27.187Z,430.35
2019-06-15T04:05:58.339Z,432.80
2019-06-15T04:08:29.588Z,435.55
2019-06-15T04:11:00.783Z,433.92
2019-06-15T04:13:32.069Z,432.05
2019-06-15T04:16:03.442Z,438.60
2019-06-15T04:18:34.651Z,436.60
2019-06-15T04:21:06.110Z,438.33
2019-06-15T04:23:37.620Z,440.92
2019-06-15T04:26:08.812Z,444.45
2019-06-15T04:28:40.063Z,453.70
2019-06-15T04:31:11.172Z,448.43
2019-06-15T04:33:42.612Z,457.60
2019-06-15T04:36:13.893Z,460.13
2019-06-15T04:38:45.456Z,457.43
2019-06-15T04:41:16.708Z,461.70
2019-06-15T04:43:47.946Z,470.65
2019-06-15T04:46:18.897Z,471.23
2019-06-15T04:48:49.840Z,478.40
2019-06-15T04:51:21.753Z,480.70
2019-06-15T04:53:52.624Z,492.60
2019-06-15T04:56:23.898Z,502.10
2019-06-15T04:58:55.080Z,513.60
2019-06-15T05:01:25.986Z,517.57
2019-06-15T05:03:56.889Z,537.90
2019-06-15T05:06:27.824Z,548.87
2019-06-15T05:08:58.852Z,540.40
2019-06-15T05:11:30.074Z,545.63
2019-06-15T05:14:01.212Z,552.70
2019-06-15T05:16:32.466Z,564.97
2019-06-15T05:19:03.473Z,585.13
2019-06-15T05:21:34.584Z,593.77
2019-06-15T05:24:08.541Z,618.60
2019-06-15T05:26:38.213Z,647.97
2019-06-15T05:29:09.244Z,658.63
2019-06-15T05:31:40.133Z,686.70
2019-06-15T05:34:11.503Z,718.40
2019-06-15T05:36:42.469Z,742.30
2019-06-15T05:39:13.510Z,763.20
2019-06-15T05:41:44.483Z,795.17
2019-06-15T05:44:15.474Z,813.10
2019-06-15T05:46:46.428Z,820.27
2019-06-15T05:49:17.447Z,824.73
2019-06-15T05:51:48.527Z,837.60
2019-06-15T05:54:19.710Z,843.87
2019-06-15T05:56:50.775Z,829.57
2019-06-15T05:59:21.870Z,870.83
2019-06-15T06:01:53.005Z,877.10
2019-06-15T06:04:24.515Z,884.90
2019-06-15T06:06:55.620Z,904.30
2019-06-15T06:09:27.286Z,907.27
2019-06-15T06:11:58.684Z,926.27
2019-06-15T06:14:30.136Z,941.07
2019-06-15T06:17:01.482Z,943.17
2019-06-15T06:19:32.910Z,933.47
2019-06-15T06:22:04.336Z,955.07
2019-06-15T06:24:36.639Z,965.33
2019-06-15T06:27:08.247Z,982.90
2019-06-15T06:29:39.654Z,986.13
2019-06-15T06:32:11.088Z,991.60
2019-06-15T06:34:42.807Z,987.70
2019-06-15T06:37:14.710Z,982.30
2019-06-15T06:39:46.258Z,971.13
2019-06-15T06:42:18.169Z,967.03
2019-06-15T06:44:50.019Z,947.63
2019-06-15T06:47:21.748Z,933.10
2019-06-15T06:49:53.602Z,901.37
2019-06-15T06:52:25.436Z,899.60
2019-06-15T06:54:57.124Z,903.13
2019-06-15T06:57:29.307Z,927.23
2019-06-15T07:00:01.029Z,928.27
2019-06-15T07:02:32.937Z,919.13
2019-06-15T07:05:05.117Z,930.03
2019-06-15T07:07:37.015Z,924.83
2019-06-15T07:10:09.788Z,925.70
2019-06-15T07:12:41.800Z,923.37
2019-06-15T07:15:13.727Z,923.57
2019-06-15T07:17:45.273Z,946.17
2019-06-15T07:20:17.057Z,947.37
2019-06-15T07:22:48.766Z,951.77
2019-06-15T07:25:20.346Z,954.37
2019-06-15T07:28:06.897Z,976.87
2019-06-15T07:30:24.962Z,965.90
2019-06-15T07:32:56.370Z,963.10
2019-06-15T07:35:27.810Z,974.50
2019-06-15T07:37:59.143Z,971.43
2019-06-15T07:40:31.569Z,985.83
2019-06-15T07:43:02.935Z,997.30
2019-06-15T07:45:34.462Z,987.83
2019-06-15T07:48:06.163Z,994.93
2019-06-15T07:50:37.808Z,984.50
2019-06-15T07:53:09.692Z,996.03
2019-06-15T07:55:41.197Z,1000.23
2019-06-15T07:58:24.055Z,998.47
2019-06-15T08:00:46.909Z,1004.00
2019-06-15T08:03:18.582Z,1007.77
2019-06-15T08:05:50.439Z,1011.97
2019-06-15T08:08:22.025Z,1018.43
2019-06-15T08:10:54.548Z,1028.60
2019-06-15T08:13:26.095Z,1023.07
2019-06-15T08:15:57.622Z,1038.10
2019-06-15T08:18:29.080Z,1031.50
2019-06-15T08:21:00.432Z,1025.03
2019-06-15T08:23:32.029Z,1030.57
2019-06-15T08:26:03.967Z,1017.30
2019-06-15T08:28:40.375Z,1013.80
2019-06-15T08:31:08.727Z,1019.90
2019-06-15T08:33:40.304Z,1022.63
2019-06-15T08:36:11.863Z,1020.67
2019-06-15T08:38:43.316Z,1024.90
2019-06-15T08:41:15.124Z,1023.57
2019-06-15T08:43:46.771Z,1032.10
2019-06-15T08:46:18.107Z,1029.27
2019-06-15T08:48:49.630Z,1026.87
2019-06-15T08:51:21.528Z,1038.97
2019-06-15T08:53:53.017Z,1040.87
2019-06-15T08:56:24.666Z,1040.33
2019-06-15T08:58:56.200Z,1041.33
2019-06-15T09:01:27.879Z,1034.70
2019-06-15T09:03:59.853Z,1028.23
2019-06-15T09:06:31.236Z,1029.20
2019-06-15T09:09:02.561Z,1035.60
2019-06-15T09:11:35.680Z,1031.50
2019-06-15T09:14:07.056Z,1036.03
2019-06-15T09:16:38.597Z,1044.50
2019-06-15T09:19:09.787Z,1033.67
2019-06-15T09:21:41.292Z,1031.40
2019-06-15T09:24:12.528Z,1019.90
2019-06-15T09:26:46.347Z,1013.87
2019-06-15T09:29:17.364Z,1014.07
2019-06-15T09:31:49.037Z,1005.40
2019-06-15T09:34:20.630Z,1009.87
2019-06-15T09:36:52.258Z,1009.57
2019-06-15T09:39:23.387Z,1020.90
2019-06-15T09:41:54.716Z,1021.90
2019-06-15T09:44:26.023Z,1031.30
2019-06-15T09:46:57.205Z,1040.20
2019-06-15T09:49:28.487Z,1044.33
2019-06-15T09:51:59.607Z,1035.50
2019-06-15T09:54:31.252Z,1033.37
2019-06-15T09:57:02.734Z,1035.30
2019-06-15T09:59:34.166Z,1039.77
2019-06-15T10:02:05.662Z,1044.80
2019-06-15T10:04:37.340Z,1051.03
2019-06-15T10:07:08.944Z,1059.17
2019-06-15T10:09:40.237Z,1056.50
2019-06-15T10:12:11.695Z,1064.70
2019-06-15T10:14:42.680Z,1062.40
2019-06-15T10:17:14.151Z,1063.30
2019-06-15T10:19:45.380Z,1056.93
2019-06-15T10:22:17.004Z,1045.37
2019-06-15T10:24:48.053Z,1042.60
2019-06-15T10:27:19.459Z,1046.43
2019-06-15T10:29:50.582Z,1047.57
2019-06-15T10:32:21.910Z,1041.73
2019-06-15T10:34:52.897Z,1036.97
2019-06-15T10:37:23.900Z,1048.90
2019-06-15T10:39:55.492Z,1053.93
2019-06-15T10:42:26.805Z,1051.50
2019-06-15T10:44:58.077Z,1044.83
2019-06-15T10:47:29.363Z,1045.00
2019-06-15T10:50:00.463Z,1079.53
2019-06-15T10:52:31.473Z,1053.03
2019-06-15T10:55:02.415Z,1051.30
2019-06-15T10:57:33.699Z,1053.17
2019-06-15T11:00:06.372Z,1061.53
2019-06-15T11:02:37.437Z,1048.43
2019-06-15T11:05:08.781Z,1041.50
2019-06-15T11:07:39.872Z,1035.90
2019-06-15T11:10:12.721Z,1032.57
2019-06-15T11:12:46.784Z,1033.23
2019-06-15T11:15:17.116Z,1024.03
2019-06-15T11:17:48.644Z,1022.00
2019-06-15T11:20:19.636Z,1021.40
2019-06-15T11:22:51.034Z,1017.10
2019-06-15T11:25:22.396Z,1014.97
2019-06-15T11:27:53.400Z,1005.67
2019-06-15T11:30:24.571Z,1006.03
2019-06-15T11:32:55.846Z,1001.07
2019-06-15T11:35:26.857Z,989.63
2019-06-15T11:37:57.958Z,988.10
2019-06-15T11:40:29.166Z,985.70
2019-06-15T11:43:00.410Z,978.67
2019-06-15T11:45:31.516Z,969.57
2019-06-15T11:48:02.540Z,965.77
2019-06-15T11:50:33.852Z,961.37
2019-06-15T11:53:05.065Z,961.53
2019-06-15T11:55:39.598Z,964.33
2019-06-15T11:58:08.702Z,963.17
2019-06-15T12:00:41.522Z,955.37
2019-06-15T12:03:12.866Z,962.77
2019-06-15T12:05:43.756Z,959.27
2019-06-15T12:08:14.962Z,963.80
2019-06-15T12:10:46.091Z,967.37
2019-06-15T12:13:17.343Z,964.60
2019-06-15T12:15:48.228Z,977.33
2019-06-15T12:18:19.336Z,976.23
2019-06-15T12:20:50.313Z,975.00
2019-06-15T12:23:21.552Z,977.23
2019-06-15T12:25:52.813Z,975.90
2019-06-15T12:28:24.125Z,969.40
2019-06-15T12:30:55.365Z,977.67
2019-06-15T12:33:26.877Z,985.00
2019-06-15T12:35:58.039Z,971.47
2019-06-15T12:38:29.655Z,977.70
2019-06-15T12:41:00.790Z,960.83
2019-06-15T12:43:32.409Z,964.13
2019-06-15T12:46:04.032Z,961.43
2019-06-15T12:48:35.176Z,947.73
2019-06-15T12:51:06.562Z,950.40
2019-06-15T12:53:37.584Z,948.83
2019-06-15T12:56:08.402Z,940.70
2019-06-15T12:58:39.659Z,941.80
2019-06-15T13:01:10.819Z,938.57
2019-06-15T13:03:41.820Z,928.47
2019-06-15T13:06:13.921Z,933.73
2019-06-15T13:08:45.434Z,936.23
2019-06-15T13:11:16.691Z,940.97
2019-06-15T13:13:47.774Z,940.33
2019-06-15T13:16:18.636Z,922.33
2019-06-15T13:18:49.914Z,932.50
2019-06-15T13:21:21.158Z,926.80
2019-06-15T13:23:52.446Z,935.43
2019-06-15T13:26:23.673Z,936.77
2019-06-15T13:28:54.931Z,940.03
2019-06-15T13:31:26.018Z,933.60
2019-06-15T13:33:56.892Z,930.83
2019-06-15T13:36:28.086Z,922.33
2019-06-15T13:38:59.009Z,917.90
2019-06-15T13:41:29.854Z,921.17
2019-06-15T13:44:01.227Z,921.00
2019-06-15T13:46:32.714Z,913.77
2019-06-15T13:49:03.990Z,916.67
2019-06-15T13:51:34.996Z,920.90
2019-06-15T13:54:06.178Z,917.80
2019-06-15T13:56:37.178Z,921.70
2019-06-15T13:59:08.403Z,920.47
2019-06-15T14:01:39.391Z,916.87
2019-06-15T14:04:10.458Z,914.00
2019-06-15T14:06:41.678Z,924.27
2019-06-15T14:09:12.722Z,919.60
2019-06-15T14:11:43.615Z,926.33
2019-06-15T14:14:14.936Z,929.03
2019-06-15T14:16:45.889Z,933.07
2019-06-15T14:19:16.800Z,919.93
2019-06-15T14:21:47.694Z,914.40
2019-06-15T14:24:18.692Z,924.90
2019-06-15T14:26:49.686Z,920.87
2019-06-15T14:29:20.669Z,911.43
2019-06-15T14:31:51.559Z,912.03
2019-06-15T14:34:22.537Z,903.50
2019-06-15T14:36:53.499Z,905.23
2019-06-15T14:39:24.881Z,898.53
2019-06-15T14:41:55.870Z,901.20
2019-06-15T14:44:26.891Z,898.17
2019-06-15T14:46:57.768Z,901.13
2019-06-15T14:49:28.808Z,899.43
2019-06-15T14:51:59.966Z,907.00
2019-06-15T14:54:30.872Z,899.60
2019-06-15T14:57:02.027Z,896.87
2019-06-15T14:59:46.432Z,893.83
2019-06-15T15:02:10.956Z,933.40
2019-06-15T15:04:38.802Z,901.10
2019-06-15T15:07:10.365Z,904.87
2019-06-15T15:09:41.363Z,907.90
2019-06-15T15:12:16.010Z,908.30
2019-06-15T15:14:47.026Z,903.27
2019-06-15T15:17:17.918Z,905.60
2019-06-15T15:19:48.984Z,898.80
2019-06-15T15:22:20.227Z,895.63
2019-06-15T15:24:51.227Z,894.17
2019-06-15T15:27:22.238Z,896.17
2019-06-15T15:29:53.246Z,898.97
2019-06-15T15:32:31.001Z,891.63
2019-06-15T15:34:57.071Z,899.03
2019-06-15T15:37:28.443Z,900.80
2019-06-15T15:39:59.536Z,896.57
2019-06-15T15:42:30.409Z,889.20
2019-06-15T15:45:01.423Z,890.57
2019-06-15T15:47:32.481Z,901.60
2019-06-15T15:50:03.348Z,889.17
2019-06-15T15:52:37.178Z,878.67
2019-06-15T15:55:09.417Z,879.47
2019-06-15T15:57:40.403Z,881.43
2019-06-15T16:00:16.454Z,876.80
2019-06-15T16:02:51.723Z,881.93
2019-06-15T16:05:19.657Z,877.80
2019-06-15T16:07:50.815Z,884.67
2019-06-15T16:10:21.931Z,872.37
2019-06-15T16:12:53.065Z,869.77
2019-06-15T16:15:26.555Z,869.83
2019-06-15T16:17:57.134Z,872.00
2019-06-15T16:20:28.176Z,866.07
2019-06-15T16:22:59.478Z,867.77
2019-06-15T16:25:30.627Z,862.23
2019-06-15T16:28:02.039Z,867.53
2019-06-15T16:30:59.814Z,863.00
2019-06-15T16:33:08.111Z,858.73
2019-06-15T16:35:40.184Z,853.03
2019-06-15T16:38:11.200Z,853.30
2019-06-15T16:40:42.383Z,845.73
2019-06-15T16:43:13.514Z,836.90
2019-06-15T16:45:46.643Z,843.43
2019-06-15T16:48:17.398Z,841.03
2019-06-15T16:50:48.441Z,835.87
2019-06-15T16:53:19.606Z,834.37
2019-06-15T16:55:50.709Z,828.67
2019-06-15T16:58:21.961Z,815.57
2019-06-15T17:00:53.069Z,817.03
2019-06-15T17:03:26.184Z,798.27
2019-06-15T17:05:58.228Z,813.57
2019-06-15T17:08:29.561Z,795.13
2019-06-15T17:11:00.757Z,797.80
2019-06-15T17:13:31.697Z,787.47
2019-06-15T17:16:03.133Z,784.10
2019-06-15T17:18:36.235Z,786.53
2019-06-15T17:21:07.157Z,787.33
2019-06-15T17:23:38.600Z,778.67
2019-06-15T17:26:09.566Z,771.40
2019-06-15T17:28:40.467Z,823.63
2019-06-15T17:31:11.741Z,777.67
2019-06-15T17:33:43.287Z,781.67
2019-06-15T17:36:14.543Z,766.33
2019-06-15T17:38:46.254Z,785.90
2019-06-15T17:41:17.486Z,779.93
2019-06-15T17:43:48.546Z,776.47
2019-06-15T17:46:19.528Z,776.83
2019-06-15T17:48:50.431Z,781.03
2019-06-15T17:51:21.529Z,780.90
2019-06-15T17:53:52.509Z,773.70
2019-06-15T17:56:23.462Z,775.37
2019-06-15T17:58:54.324Z,772.83
2019-06-15T18:01:26.558Z,760.23
2019-06-15T18:03:58.280Z,770.67
2019-06-15T18:06:30.313Z,762.80
2019-06-15T18:09:01.667Z,756.43
2019-06-15T18:11:37.390Z,766.53
2019-06-15T18:14:06.902Z,759.60
2019-06-15T18:16:38.434Z,765.20
2019-06-15T18:19:09.422Z,765.63
2019-06-15T18:21:41.574Z,746.97
2019-06-15T18:24:12.573Z,767.37
2019-06-15T18:26:43.787Z,752.87
2019-06-15T18:29:16.764Z,764.37
2019-06-15T18:31:47.484Z,760.73
2019-06-15T18:34:18.504Z,748.63
2019-06-15T18:36:49.370Z,776.33
2019-06-15T18:39:20.557Z,747.80
2019-06-15T18:41:51.508Z,739.70
2019-06-15T18:44:22.572Z,750.63
2019-06-15T18:46:56.424Z,753.33
2019-06-15T18:49:27.380Z,748.33
2019-06-15T18:51:58.458Z,747.77
2019-06-15T18:54:29.467Z,741.17
2019-06-15T18:57:00.414Z,731.73
2019-06-15T18:59:31.387Z,735.03
2019-06-15T19:02:02.347Z,735.33
2019-06-15T19:04:33.183Z,732.70
2019-06-15T19:07:06.505Z,717.00
2019-06-15T19:09:37.231Z,726.53
2019-06-15T19:12:08.101Z,721.70
2019-06-15T19:14:39.033Z,727.17
2019-06-15T19:17:10.385Z,730.87
2019-06-15T19:19:41.290Z,725.10
2019-06-15T19:22:14.056Z,722.13
2019-06-15T19:24:49.992Z,722.97
2019-06-15T19:27:18.013Z,724.23
2019-06-15T19:29:48.959Z,724.37
2019-06-15T19:32:19.990Z,716.47
2019-06-15T19:34:51.322Z,718.83
2019-06-15T19:37:22.203Z,712.57
2019-06-15T19:39:53.183Z,711.83
2019-06-15T19:42:26.005Z,714.40
2019-06-15T19:44:57.221Z,710.50
2019-06-15T19:47:28.501Z,707.37
2019-06-15T19:49:59.666Z,713.23
2019-06-15T19:52:31.077Z,700.80
2019-06-15T19:55:02.465Z,704.83
2019-06-15T19:57:36.004Z,695.70
2019-06-15T20:00:07.487Z,698.47
2019-06-15T20:02:38.513Z,697.73
2019-06-15T20:05:10.663Z,693.30
2019-06-15T20:07:41.911Z,689.47
2019-06-15T20:10:14.626Z,699.30
2019-06-15T20:12:46.627Z,685.13
2019-06-15T20:15:17.892Z,688.80
2019-06-15T20:17:49.299Z,691.90
2019-06-15T20:20:20.545Z,688.50
2019-06-15T20:22:51.754Z,689.63
2019-06-15T20:25:22.578Z,689.63
2019-06-15T20:27:56.237Z,683.57
2019-06-15T20:30:26.602Z,675.00
2019-06-15T20:32:57.572Z,676.10
2019-06-15T20:35:28.610Z,679.63
2019-06-15T20:37:59.696Z,671.30
2019-06-15T20:40:30.856Z,669.43
2019-06-15T20:43:01.810Z,669.57
2019-06-15T20:45:33.891Z,669.43
2019-06-15T20:48:06.823Z,646.67
2019-06-15T20:50:37.757Z,664.77
2019-06-15T20:53:08.845Z,661.13
2019-06-15T20:55:40.056Z,661.10
2019-06-15T20:58:11.102Z,651.70
2019-06-15T21:00:42.059Z,644.37
2019-06-15T21:03:13.190Z,641.80
2019-06-15T21:05:44.204Z,627.33
2019-06-15T21:08:15.977Z,680.97
2019-06-15T21:10:46.977Z,632.63
2019-06-15T21:13:17.961Z,627.17
2019-06-15T21:15:49.600Z,626.10
2019-06-15T21:18:20.744Z,616.87
2019-06-15T21:20:51.784Z,623.83
2019-06-15T21:23:22.882Z,608.00
2019-06-15T21:25:54.010Z,613.27
2019-06-15T21:28:27.185Z,606.33
2019-06-15T21:30:57.625Z,605.17
2019-06-15T21:33:28.622Z,613.70
2019-06-15T21:35:59.514Z,605.93
2019-06-15T21:38:30.725Z,600.63
2019-06-15T21:41:01.980Z,591.83
2019-06-15T21:43:33.043Z,588.67
2019-06-15T21:46:06.302Z,581.27
2019-06-15T21:48:37.089Z,574.63
2019-06-15T21:51:08.629Z,569.83
2019-06-15T21:53:39.961Z,570.47
2019-06-15T21:56:11.102Z,559.60
2019-06-15T21:58:42.833Z,554.63
2019-06-15T22:01:22.405Z,548.90
2019-06-15T22:03:53.874Z,548.90
2019-06-15T22:06:26.251Z,552.20
2019-06-15T22:08:58.005Z,544.50
2019-06-15T22:11:29.099Z,541.73
2019-06-15T22:14:00.270Z,542.83
2019-06-15T22:16:31.455Z,528.67
2019-06-15T22:19:03.035Z,545.97
2019-06-15T22:21:36.619Z,534.77
2019-06-15T22:24:07.559Z,532.17
2019-06-15T22:26:38.948Z,531.33
2019-06-15T22:29:10.795Z,536.37
2019-06-15T22:31:42.123Z,538.67
2019-06-15T22:34:16.066Z,535.20
2019-06-15T22:36:47.926Z,529.40
2019-06-15T22:39:19.412Z,530.67
2019-06-15T22:41:50.696Z,527.90
2019-06-15T22:44:22.077Z,516.67
2019-06-15T22:46:53.270Z,512.43
2019-06-15T22:49:24.911Z,507.33
2019-06-15T22:51:56.904Z,493.73
2019-06-15T22:54:29.065Z,486.77
2019-06-15T22:57:00.163Z,491.97
2019-06-15T22:59:31.513Z,483.87
2019-06-15T23:02:02.443Z,476.93
2019-06-15T23:04:33.528Z,464.90
2019-06-15T23:07:06.796Z,467.90
2019-06-15T23:09:37.574Z,465.43
2019-06-15T23:12:08.734Z,454.07
2019-06-15T23:14:41.051Z,451.87
2019-06-15T23:17:12.174Z,448.17
2019-06-15T23:19:45.977Z,460.80
2019-06-15T23:22:17.179Z,462.77
2019-06-15T23:24:48.179Z,445.80
2019-06-15T23:27:19.631Z,450.20
2019-06-15T23:29:50.683Z,445.67
2019-06-15T23:32:22.033Z,452.70
2019-06-15T23:34:56.384Z,446.83
2019-06-15T23:37:27.530Z,445.00
2019-06-15T23:40:16.360Z,457.53
2019-06-15T23:42:47.959Z,459.23
2019-06-15T23:45:20.526Z,457.15
2019-06-15T23:47:51.890Z,442.33
2019-06-15T23:50:26.404Z,441.52
2019-06-15T23:52:58.156Z,443.05
2019-06-15T23:55:29.603Z,435.67
2019-06-15T23:58:00.848Z,437.72
